sensor_id;sensor_type;location;lat;lon;timestamp;pressure;altitude;pressure_sealevel;temperature;humidity
56944;BME280;42848;42.524;12.052;2023-12-20T00:00:59;96850.78;;;7.91;100.00
56944;BME280;42848;42.524;12.052;2023-12-20T00:03:25;96850.16;;;7.66;100.00
56944;BME280;42848;42.524;12.052;2023-12-20T00:05:50;96839.69;;;7.79;100.00
56944;BME280;42848;42.524;12.052;2023-12-20T00:08:16;96839.50;;;7.43;100.00
56944;BME280;42848;42.524;12.052;2023-12-20T00:10:43;96842.16;;;7.61;100.00
56944;BME280;42848;42.524;12.052;2023-12-20T00:13:09;96839.44;;;7.61;100.00
56944;BME280;42848;42.524;12.052;2023-12-20T00:18:56;96843.25;;;7.28;100.00
56944;BME280;42848;42.524;12.052;2023-12-20T00:21:22;96841.47;;;7.37;100.00
56944;BME280;42848;42.524;12.052;2023-12-20T00:23:48;96834.16;;;7.70;100.00
56944;BME280;42848;42.524;12.052;2023-12-20T00:26:13;96830.78;;;7.78;100.00
56944;BME280;42848;42.524;12.052;2023-12-20T00:28:39;96822.31;;;7.52;100.00
56944;BME280;42848;42.524;12.052;2023-12-20T00:31:04;96839.28;;;7.39;100.00
56944;BME280;42848;42.524;12.052;2023-12-20T00:33:30;96831.91;;;7.58;100.00
56944;BME280;42848;42.524;12.052;2023-12-20T00:35:55;96818.56;;;7.81;100.00
56944;BME280;42848;42.524;12.052;2023-12-20T00:38:21;96817.34;;;7.59;100.00
56944;BME280;42848;42.524;12.052;2023-12-20T00:40:48;96819.50;;;7.57;100.00
56944;BME280;42848;42.524;12.052;2023-12-20T00:43:15;96815.66;;;7.31;100.00
56944;BME280;42848;42.524;12.052;2023-12-20T00:45:40;96807.28;;;7.46;100.00
56944;BME280;42848;42.524;12.052;2023-12-20T00:48:06;96811.28;;;7.35;100.00
56944;BME280;42848;42.524;12.052;2023-12-20T00:50:32;96806.59;;;7.08;100.00
56944;BME280;42848;42.524;12.052;2023-12-20T00:52:57;96801.41;;;7.11;100.00
56944;BME280;42848;42.524;12.052;2023-12-20T00:55:23;96800.59;;;7.11;100.00
56944;BME280;42848;42.524;12.052;2023-12-20T00:57:48;96799.88;;;7.38;100.00
56944;BME280;42848;42.524;12.052;2023-12-20T01:00:14;96798.69;;;7.44;100.00
56944;BME280;42848;42.524;12.052;2023-12-20T01:02:40;96797.59;;;7.45;100.00
56944;BME280;42848;42.524;12.052;2023-12-20T01:05:06;96793.38;;;7.39;100.00
56944;BME280;42848;42.524;12.052;2023-12-20T01:07:33;96787.63;;;7.59;100.00
56944;BME280;42848;42.524;12.052;2023-12-20T01:09:59;96784.63;;;7.15;100.00
56944;BME280;42848;42.524;12.052;2023-12-20T01:12:25;96780.41;;;7.41;100.00
56944;BME280;42848;42.524;12.052;2023-12-20T01:14:50;96777.34;;;7.29;100.00
56944;BME280;42848;42.524;12.052;2023-12-20T01:17:16;96782.19;;;7.32;100.00
56944;BME280;42848;42.524;12.052;2023-12-20T01:19:42;96784.88;;;7.32;100.00
56944;BME280;42848;42.524;12.052;2023-12-20T01:22:07;96778.56;;;7.36;100.00
56944;BME280;42848;42.524;12.052;2023-12-20T01:24:33;96778.00;;;7.53;100.00
56944;BME280;42848;42.524;12.052;2023-12-20T01:26:58;96775.16;;;7.31;100.00
56944;BME280;42848;42.524;12.052;2023-12-20T01:29:24;96778.59;;;7.50;100.00
56944;BME280;42848;42.524;12.052;2023-12-20T01:31:49;96764.53;;;7.21;100.00
56944;BME280;42848;42.524;12.052;2023-12-20T01:34:15;96766.16;;;7.35;100.00
56944;BME280;42848;42.524;12.052;2023-12-20T01:36:41;96778.75;;;7.26;100.00
56944;BME280;42848;42.524;12.052;2023-12-20T01:39:06;96763.97;;;7.24;100.00
56944;BME280;42848;42.524;12.052;2023-12-20T01:41:32;96768.69;;;7.32;100.00
56944;BME280;42848;42.524;12.052;2023-12-20T01:43:57;96755.22;;;7.13;100.00
56944;BME280;42848;42.524;12.052;2023-12-20T01:46:24;96756.13;;;7.08;100.00
56944;BME280;42848;42.524;12.052;2023-12-20T01:48:51;96755.44;;;7.17;100.00
56944;BME280;42848;42.524;12.052;2023-12-20T01:51:17;96755.63;;;7.20;100.00
56944;BME280;42848;42.524;12.052;2023-12-20T01:53:43;96750.84;;;7.31;100.00
56944;BME280;42848;42.524;12.052;2023-12-20T01:56:09;96754.19;;;6.95;100.00
56944;BME280;42848;42.524;12.052;2023-12-20T01:58:39;96751.31;;;7.05;100.00
56944;BME280;42848;42.524;12.052;2023-12-20T02:01:06;96741.78;;;6.94;100.00
56944;BME280;42848;42.524;12.052;2023-12-20T02:03:31;96735.41;;;7.04;100.00
56944;BME280;42848;42.524;12.052;2023-12-20T02:05:57;96734.13;;;6.69;100.00
56944;BME280;42848;42.524;12.052;2023-12-20T02:08:23;96731.94;;;6.84;100.00
56944;BME280;42848;42.524;12.052;2023-12-20T02:10:49;96730.16;;;6.80;100.00
56944;BME280;42848;42.524;12.052;2023-12-20T02:13:14;96723.91;;;6.98;100.00
56944;BME280;42848;42.524;12.052;2023-12-20T02:15:40;96717.03;;;7.20;100.00
56944;BME280;42848;42.524;12.052;2023-12-20T02:18:08;96714.03;;;7.07;100.00
56944;BME280;42848;42.524;12.052;2023-12-20T02:20:33;96711.22;;;7.12;100.00
56944;BME280;42848;42.524;12.052;2023-12-20T02:22:59;96698.84;;;7.25;100.00
56944;BME280;42848;42.524;12.052;2023-12-20T02:25:24;96693.97;;;7.13;100.00
56944;BME280;42848;42.524;12.052;2023-12-20T02:27:50;96695.50;;;6.87;100.00
56944;BME280;42848;42.524;12.052;2023-12-20T02:30:16;96686.44;;;7.10;100.00
56944;BME280;42848;42.524;12.052;2023-12-20T02:32:42;96686.44;;;6.97;100.00
56944;BME280;42848;42.524;12.052;2023-12-20T02:35:07;96686.66;;;7.14;100.00
56944;BME280;42848;42.524;12.052;2023-12-20T02:37:33;96682.81;;;7.01;100.00
56944;BME280;42848;42.524;12.052;2023-12-20T02:39:59;96681.41;;;6.90;100.00
56944;BME280;42848;42.524;12.052;2023-12-20T02:42:25;96683.19;;;6.81;100.00
56944;BME280;42848;42.524;12.052;2023-12-20T02:44:50;96679.22;;;6.92;100.00
56944;BME280;42848;42.524;12.052;2023-12-20T02:47:16;96678.72;;;6.90;100.00
56944;BME280;42848;42.524;12.052;2023-12-20T02:49:42;96670.31;;;6.26;100.00
56944;BME280;42848;42.524;12.052;2023-12-20T02:52:07;96668.66;;;6.63;100.00
56944;BME280;42848;42.524;12.052;2023-12-20T02:54:33;96672.47;;;6.76;100.00
56944;BME280;42848;42.524;12.052;2023-12-20T02:56:58;96664.00;;;6.69;100.00
56944;BME280;42848;42.524;12.052;2023-12-20T02:59:24;96661.50;;;6.72;100.00
56944;BME280;42848;42.524;12.052;2023-12-20T03:01:49;96657.94;;;6.91;100.00
56944;BME280;42848;42.524;12.052;2023-12-20T03:04:15;96653.00;;;6.79;100.00
56944;BME280;42848;42.524;12.052;2023-12-20T03:06:41;96649.47;;;6.65;100.00
56944;BME280;42848;42.524;12.052;2023-12-20T03:09:06;96648.59;;;6.69;100.00
56944;BME280;42848;42.524;12.052;2023-12-20T03:11:32;96636.72;;;6.84;100.00
56944;BME280;42848;42.524;12.052;2023-12-20T03:13:58;96639.59;;;6.74;100.00
56944;BME280;42848;42.524;12.052;2023-12-20T03:16:24;96644.34;;;6.49;100.00
56944;BME280;42848;42.524;12.052;2023-12-20T03:18:49;96632.34;;;6.42;100.00
56944;BME280;42848;42.524;12.052;2023-12-20T03:21:16;96623.41;;;6.74;100.00
56944;BME280;42848;42.524;12.052;2023-12-20T03:23:41;96624.09;;;6.52;100.00
56944;BME280;42848;42.524;12.052;2023-12-20T03:26:08;96625.31;;;6.73;100.00
56944;BME280;42848;42.524;12.052;2023-12-20T03:28:34;96625.44;;;6.82;100.00
56944;BME280;42848;42.524;12.052;2023-12-20T03:31:00;96625.81;;;6.62;100.00
56944;BME280;42848;42.524;12.052;2023-12-20T03:33:27;96615.06;;;6.89;100.00
56944;BME280;42848;42.524;12.052;2023-12-20T03:35:53;96610.84;;;6.83;100.00
56944;BME280;42848;42.524;12.052;2023-12-20T03:38:18;96613.66;;;6.78;100.00
56944;BME280;42848;42.524;12.052;2023-12-20T03:40:44;96612.84;;;6.91;100.00
56944;BME280;42848;42.524;12.052;2023-12-20T03:43:10;96600.53;;;6.85;100.00
56944;BME280;42848;42.524;12.052;2023-12-20T03:45:35;96596.69;;;6.45;100.00
56944;BME280;42848;42.524;12.052;2023-12-20T03:48:01;96597.00;;;6.57;100.00
56944;BME280;42848;42.524;12.052;2023-12-20T03:50:26;96594.66;;;6.83;100.00
56944;BME280;42848;42.524;12.052;2023-12-20T03:52:52;96590.06;;;6.70;100.00
56944;BME280;42848;42.524;12.052;2023-12-20T03:55:18;96580.44;;;6.64;100.00
56944;BME280;42848;42.524;12.052;2023-12-20T03:57:44;96583.38;;;6.81;100.00
56944;BME280;42848;42.524;12.052;2023-12-20T04:00:10;96578.19;;;6.98;100.00
56944;BME280;42848;42.524;12.052;2023-12-20T04:02:40;96576.16;;;6.63;100.00
56944;BME280;42848;42.524;12.052;2023-12-20T04:05:07;96569.25;;;6.43;100.00
56944;BME280;42848;42.524;12.052;2023-12-20T04:07:32;96574.06;;;6.60;100.00
56944;BME280;42848;42.524;12.052;2023-12-20T04:09:58;96572.66;;;6.62;100.00
56944;BME280;42848;42.524;12.052;2023-12-20T04:12:24;96570.25;;;6.61;100.00
56944;BME280;42848;42.524;12.052;2023-12-20T04:14:50;96571.06;;;6.61;100.00
56944;BME280;42848;42.524;12.052;2023-12-20T04:17:16;96571.81;;;6.48;100.00
56944;BME280;42848;42.524;12.052;2023-12-20T04:19:42;96568.84;;;6.49;100.00
56944;BME280;42848;42.524;12.052;2023-12-20T04:22:08;96557.22;;;6.35;100.00
56944;BME280;42848;42.524;12.052;2023-12-20T04:24:34;96565.63;;;6.47;100.00
56944;BME280;42848;42.524;12.052;2023-12-20T04:27:00;96554.66;;;6.57;100.00
56944;BME280;42848;42.524;12.052;2023-12-20T04:29:25;96560.28;;;6.61;100.00
56944;BME280;42848;42.524;12.052;2023-12-20T04:31:51;96552.06;;;6.66;100.00
56944;BME280;42848;42.524;12.052;2023-12-20T04:34:17;96547.63;;;6.29;100.00
56944;BME280;42848;42.524;12.052;2023-12-20T04:36:44;96552.25;;;6.42;100.00
56944;BME280;42848;42.524;12.052;2023-12-20T04:39:11;96547.66;;;6.43;100.00
56944;BME280;42848;42.524;12.052;2023-12-20T04:41:37;96549.56;;;6.42;100.00
56944;BME280;42848;42.524;12.052;2023-12-20T04:44:02;96546.25;;;6.45;100.00
56944;BME280;42848;42.524;12.052;2023-12-20T04:46:28;96554.28;;;6.18;100.00
56944;BME280;42848;42.524;12.052;2023-12-20T04:48:53;96543.25;;;6.01;100.00
56944;BME280;42848;42.524;12.052;2023-12-20T04:51:19;96543.75;;;6.03;100.00
56944;BME280;42848;42.524;12.052;2023-12-20T04:53:45;96545.16;;;6.33;100.00
56944;BME280;42848;42.524;12.052;2023-12-20T04:56:11;96543.19;;;6.66;100.00
56944;BME280;42848;42.524;12.052;2023-12-20T04:58:37;96542.97;;;6.48;100.00
56944;BME280;42848;42.524;12.052;2023-12-20T05:01:03;96537.97;;;6.55;100.00
56944;BME280;42848;42.524;12.052;2023-12-20T05:03:31;96530.91;;;6.73;100.00
56944;BME280;42848;42.524;12.052;2023-12-20T05:05:56;96543.50;;;6.78;100.00
56944;BME280;42848;42.524;12.052;2023-12-20T05:08:22;96529.91;;;6.97;100.00
56944;BME280;42848;42.524;12.052;2023-12-20T05:10:48;96541.91;;;6.91;100.00
56944;BME280;42848;42.524;12.052;2023-12-20T05:13:13;96542.69;;;6.64;100.00
56944;BME280;42848;42.524;12.052;2023-12-20T05:15:39;96546.59;;;6.71;100.00
56944;BME280;42848;42.524;12.052;2023-12-20T05:18:05;96545.69;;;6.90;100.00
56944;BME280;42848;42.524;12.052;2023-12-20T05:20:30;96543.28;;;6.61;100.00
56944;BME280;42848;42.524;12.052;2023-12-20T05:22:56;96543.50;;;6.78;100.00
56944;BME280;42848;42.524;12.052;2023-12-20T05:25:21;96553.47;;;6.64;100.00
56944;BME280;42848;42.524;12.052;2023-12-20T05:27:47;96544.50;;;6.68;100.00
56944;BME280;42848;42.524;12.052;2023-12-20T05:30:13;96533.28;;;6.75;100.00
56944;BME280;42848;42.524;12.052;2023-12-20T05:32:39;96539.72;;;6.79;100.00
56944;BME280;42848;42.524;12.052;2023-12-20T05:35:04;96534.19;;;6.84;100.00
56944;BME280;42848;42.524;12.052;2023-12-20T05:37:30;96534.19;;;6.84;100.00
56944;BME280;42848;42.524;12.052;2023-12-20T05:39:56;96531.09;;;6.91;100.00
56944;BME280;42848;42.524;12.052;2023-12-20T05:42:21;96538.91;;;6.92;100.00
56944;BME280;42848;42.524;12.052;2023-12-20T05:44:47;96529.50;;;6.90;100.00
56944;BME280;42848;42.524;12.052;2023-12-20T05:47:12;96524.72;;;6.87;100.00
56944;BME280;42848;42.524;12.052;2023-12-20T05:49:38;96526.09;;;6.84;100.00
56944;BME280;42848;42.524;12.052;2023-12-20T05:52:03;96522.00;;;6.73;100.00
56944;BME280;42848;42.524;12.052;2023-12-20T05:54:30;96522.09;;;6.40;100.00
56944;BME280;42848;42.524;12.052;2023-12-20T05:56:55;96520.13;;;6.60;100.00
56944;BME280;42848;42.524;12.052;2023-12-20T05:59:21;96522.72;;;6.65;100.00
56944;BME280;42848;42.524;12.052;2023-12-20T06:01:47;96513.50;;;6.66;100.00
56944;BME280;42848;42.524;12.052;2023-12-20T06:04:12;96516.63;;;6.73;100.00
56944;BME280;42848;42.524;12.052;2023-12-20T06:06:42;96519.59;;;6.44;100.00
56944;BME280;42848;42.524;12.052;2023-12-20T06:09:07;96519.59;;;6.44;100.00
56944;BME280;42848;42.524;12.052;2023-12-20T06:11:33;96511.13;;;6.78;100.00
56944;BME280;42848;42.524;12.052;2023-12-20T06:13:58;96506.94;;;6.72;100.00
56944;BME280;42848;42.524;12.052;2023-12-20T06:16:24;96514.41;;;6.75;100.00
56944;BME280;42848;42.524;12.052;2023-12-20T06:18:50;96506.13;;;6.85;100.00
56944;BME280;42848;42.524;12.052;2023-12-20T06:21:15;96510.63;;;6.62;100.00
56944;BME280;42848;42.524;12.052;2023-12-20T06:23:41;96512.59;;;6.29;100.00
56944;BME280;42848;42.524;12.052;2023-12-20T06:26:06;96513.38;;;6.30;100.00
56944;BME280;42848;42.524;12.052;2023-12-20T06:28:32;96500.69;;;6.30;100.00
56944;BME280;42848;42.524;12.052;2023-12-20T06:30:58;96510.91;;;6.33;100.00
56944;BME280;42848;42.524;12.052;2023-12-20T06:33:24;96514.50;;;6.42;100.00
56944;BME280;42848;42.524;12.052;2023-12-20T06:35:50;96505.47;;;6.06;100.00
56944;BME280;42848;42.524;12.052;2023-12-20T06:38:19;96507.25;;;6.10;100.00
56944;BME280;42848;42.524;12.052;2023-12-20T06:40:44;96502.94;;;6.42;100.00
56944;BME280;42848;42.524;12.052;2023-12-20T06:43:12;96492.25;;;6.50;100.00
56944;BME280;42848;42.524;12.052;2023-12-20T06:45:39;96503.81;;;6.37;100.00
56944;BME280;42848;42.524;12.052;2023-12-20T06:48:06;96500.84;;;6.52;100.00
56944;BME280;42848;42.524;12.052;2023-12-20T06:50:31;96503.94;;;6.60;100.00
56944;BME280;42848;42.524;12.052;2023-12-20T06:52:57;96499.13;;;6.56;100.00
56944;BME280;42848;42.524;12.052;2023-12-20T06:55:22;96495.75;;;6.65;100.00
56944;BME280;42848;42.524;12.052;2023-12-20T06:57:48;96489.25;;;6.66;100.00
56944;BME280;42848;42.524;12.052;2023-12-20T07:00:14;96498.13;;;6.66;100.00
56944;BME280;42848;42.524;12.052;2023-12-20T07:02:40;96489.66;;;6.59;100.00
56944;BME280;42848;42.524;12.052;2023-12-20T07:05:06;96488.34;;;6.56;100.00
56944;BME280;42848;42.524;12.052;2023-12-20T07:07:32;96488.13;;;6.67;100.00
56944;BME280;42848;42.524;12.052;2023-12-20T07:09:57;96488.75;;;6.64;100.00
56944;BME280;42848;42.524;12.052;2023-12-20T07:12:23;96489.06;;;6.62;100.00
56944;BME280;42848;42.524;12.052;2023-12-20T07:14:48;96497.94;;;6.35;100.00
56944;BME280;42848;42.524;12.052;2023-12-20T07:17:14;96487.84;;;6.41;100.00
56944;BME280;42848;42.524;12.052;2023-12-20T07:19:41;96489.94;;;6.44;100.00
56944;BME280;42848;42.524;12.052;2023-12-20T07:22:07;96487.75;;;6.60;100.00
56944;BME280;42848;42.524;12.052;2023-12-20T07:24:33;96492.13;;;6.55;100.00
56944;BME280;42848;42.524;12.052;2023-12-20T07:27:00;96487.34;;;6.66;100.00
56944;BME280;42848;42.524;12.052;2023-12-20T07:29:26;96503.75;;;6.70;100.00
56944;BME280;42848;42.524;12.052;2023-12-20T07:31:53;96487.16;;;6.63;100.00
56944;BME280;42848;42.524;12.052;2023-12-20T07:34:22;96488.66;;;6.69;100.00
56944;BME280;42848;42.524;12.052;2023-12-20T07:36:48;96492.44;;;6.54;100.00
56944;BME280;42848;42.524;12.052;2023-12-20T07:39:14;96489.84;;;6.63;100.00
56944;BME280;42848;42.524;12.052;2023-12-20T07:41:40;96481.16;;;6.79;100.00
56944;BME280;42848;42.524;12.052;2023-12-20T07:44:06;96482.22;;;6.92;100.00
56944;BME280;42848;42.524;12.052;2023-12-20T07:46:32;96486.66;;;6.88;100.00
56944;BME280;42848;42.524;12.052;2023-12-20T07:48:57;96480.03;;;6.94;100.00
56944;BME280;42848;42.524;12.052;2023-12-20T07:51:23;96472.72;;;7.08;100.00
56944;BME280;42848;42.524;12.052;2023-12-20T07:53:48;96474.03;;;6.97;100.00
56944;BME280;42848;42.524;12.052;2023-12-20T07:56:15;96478.50;;;7.02;100.00
56944;BME280;42848;42.524;12.052;2023-12-20T07:58:41;96470.31;;;7.07;100.00
56944;BME280;42848;42.524;12.052;2023-12-20T08:01:07;96469.91;;;7.13;100.00
56944;BME280;42848;42.524;12.052;2023-12-20T08:03:32;96476.19;;;7.23;100.00
56944;BME280;42848;42.524;12.052;2023-12-20T08:05:58;96476.44;;;7.35;100.00
56944;BME280;42848;42.524;12.052;2023-12-20T08:08:25;96474.13;;;7.42;100.00
56944;BME280;42848;42.524;12.052;2023-12-20T08:10:50;96467.19;;;7.50;100.00
56944;BME280;42848;42.524;12.052;2023-12-20T08:13:16;96470.56;;;7.55;100.00
56944;BME280;42848;42.524;12.052;2023-12-20T08:15:42;96474.00;;;7.47;100.00
56944;BME280;42848;42.524;12.052;2023-12-20T08:18:07;96478.06;;;7.58;100.00
56944;BME280;42848;42.524;12.052;2023-12-20T08:20:33;96472.38;;;7.60;100.00
56944;BME280;42848;42.524;12.052;2023-12-20T08:22:58;96469.34;;;7.61;100.00
56944;BME280;42848;42.524;12.052;2023-12-20T08:25:24;96468.34;;;7.57;100.00
56944;BME280;42848;42.524;12.052;2023-12-20T08:27:50;96470.31;;;7.65;100.00
56944;BME280;42848;42.524;12.052;2023-12-20T08:30:15;96469.34;;;7.61;100.00
56944;BME280;42848;42.524;12.052;2023-12-20T08:32:46;96474.09;;;7.78;100.00
56944;BME280;42848;42.524;12.052;2023-12-20T08:35:11;96469.03;;;7.85;100.00
56944;BME280;42848;42.524;12.052;2023-12-20T08:37:37;96481.63;;;7.90;100.00
56944;BME280;42848;42.524;12.052;2023-12-20T08:40:03;96488.31;;;7.92;100.00
56944;BME280;42848;42.524;12.052;2023-12-20T08:42:28;96491.63;;;7.89;100.00
56944;BME280;42848;42.524;12.052;2023-12-20T08:44:57;96492.00;;;7.96;100.00
56944;BME280;42848;42.524;12.052;2023-12-20T08:47:24;96481.00;;;7.93;100.00
56944;BME280;42848;42.524;12.052;2023-12-20T08:49:50;96485.56;;;8.06;100.00
56944;BME280;42848;42.524;12.052;2023-12-20T08:52:16;96495.47;;;8.19;100.00
56944;BME280;42848;42.524;12.052;2023-12-20T08:54:42;96484.66;;;8.19;100.00
56944;BME280;42848;42.524;12.052;2023-12-20T08:57:07;96481.63;;;8.21;100.00
56944;BME280;42848;42.524;12.052;2023-12-20T08:59:33;96488.94;;;8.20;100.00
56944;BME280;42848;42.524;12.052;2023-12-20T09:01:59;96484.84;;;8.23;100.00
56944;BME280;42848;42.524;12.052;2023-12-20T09:04:25;96476.22;;;8.21;100.00
56944;BME280;42848;42.524;12.052;2023-12-20T09:06:50;96479.63;;;8.04;100.00
56944;BME280;42848;42.524;12.052;2023-12-20T09:09:16;96470.44;;;8.05;100.00
56944;BME280;42848;42.524;12.052;2023-12-20T09:11:42;96460.53;;;8.01;100.00
56944;BME280;42848;42.524;12.052;2023-12-20T09:14:08;96457.53;;;8.02;100.00
56944;BME280;42848;42.524;12.052;2023-12-20T09:16:34;96455.66;;;8.11;100.00
56944;BME280;42848;42.524;12.052;2023-12-20T09:19:00;96455.81;;;8.06;100.00
56944;BME280;42848;42.524;12.052;2023-12-20T09:21:26;96460.81;;;8.21;100.00
56944;BME280;42848;42.524;12.052;2023-12-20T09:23:52;96456.06;;;8.27;100.00
56944;BME280;42848;42.524;12.052;2023-12-20T09:26:17;96449.66;;;8.14;100.00
56944;BME280;42848;42.524;12.052;2023-12-20T09:28:43;96440.25;;;8.43;100.00
56944;BME280;42848;42.524;12.052;2023-12-20T09:31:09;96446.59;;;8.38;100.00
56944;BME280;42848;42.524;12.052;2023-12-20T09:33:34;96447.31;;;8.52;100.00
56944;BME280;42848;42.524;12.052;2023-12-20T09:36:00;96458.31;;;8.65;100.00
56944;BME280;42848;42.524;12.052;2023-12-20T09:38:26;96461.97;;;8.29;100.00
56944;BME280;42848;42.524;12.052;2023-12-20T09:40:51;96448.38;;;8.43;100.00
56944;BME280;42848;42.524;12.052;2023-12-20T09:43:19;96446.63;;;8.47;100.00
56944;BME280;42848;42.524;12.052;2023-12-20T09:45:47;96450.50;;;8.63;100.00
56944;BME280;42848;42.524;12.052;2023-12-20T09:48:14;96450.38;;;8.77;100.00
56944;BME280;42848;42.524;12.052;2023-12-20T09:50:43;96446.28;;;8.40;100.00
56944;BME280;42848;42.524;12.052;2023-12-20T09:53:13;96450.22;;;8.73;100.00
56944;BME280;42848;42.524;12.052;2023-12-20T09:55:41;96443.06;;;8.86;100.00
56944;BME280;42848;42.524;12.052;2023-12-20T09:58:07;96443.88;;;8.87;100.00
56944;BME280;42848;42.524;12.052;2023-12-20T10:00:35;96442.47;;;8.98;100.00
56944;BME280;42848;42.524;12.052;2023-12-20T10:03:01;96435.78;;;9.04;100.00
56944;BME280;42848;42.524;12.052;2023-12-20T10:05:31;96428.19;;;9.15;100.00
56944;BME280;42848;42.524;12.052;2023-12-20T10:07:58;96414.31;;;9.16;100.00
56944;BME280;42848;42.524;12.052;2023-12-20T10:10:24;96411.91;;;9.23;100.00
56944;BME280;42848;42.524;12.052;2023-12-20T10:15:29;96407.44;;;9.10;100.00
56944;BME280;42848;42.524;12.052;2023-12-20T10:17:54;96405.41;;;9.24;100.00
56944;BME280;42848;42.524;12.052;2023-12-20T10:20:20;96400.28;;;9.31;100.00
56944;BME280;42848;42.524;12.052;2023-12-20T10:22:46;96406.81;;;9.30;100.00
56944;BME280;42848;42.524;12.052;2023-12-20T10:25:12;96387.22;;;9.42;100.00
56944;BME280;42848;42.524;12.052;2023-12-20T10:27:38;96388.03;;;9.34;100.00
56944;BME280;42848;42.524;12.052;2023-12-20T10:30:04;96391.69;;;9.38;100.00
56944;BME280;42848;42.524;12.052;2023-12-20T10:32:30;96392.16;;;9.40;100.00
56944;BME280;42848;42.524;12.052;2023-12-20T10:34:57;96395.34;;;9.42;100.00
56944;BME280;42848;42.524;12.052;2023-12-20T10:37:22;96387.69;;;9.35;100.00
56944;BME280;42848;42.524;12.052;2023-12-20T10:39:51;96383.53;;;9.47;100.00
56944;BME280;42848;42.524;12.052;2023-12-20T10:42:20;96376.53;;;9.54;100.00
56944;BME280;42848;42.524;12.052;2023-12-20T10:44:47;96365.38;;;9.47;100.00
56944;BME280;42848;42.524;12.052;2023-12-20T10:47:14;96368.84;;;9.56;100.00
56944;BME280;42848;42.524;12.052;2023-12-20T10:49:41;96359.00;;;9.60;100.00
56944;BME280;42848;42.524;12.052;2023-12-20T10:52:08;96354.63;;;9.68;100.00
56944;BME280;42848;42.524;12.052;2023-12-20T10:54:34;96351.47;;;9.66;100.00
56944;BME280;42848;42.524;12.052;2023-12-20T10:57:00;96340.94;;;9.73;100.00
56944;BME280;42848;42.524;12.052;2023-12-20T10:59:33;96347.16;;;9.74;100.00
56944;BME280;42848;42.524;12.052;2023-12-20T11:02:02;96343.81;;;9.68;100.00
56944;BME280;42848;42.524;12.052;2023-12-20T11:04:51;96346.69;;;9.63;100.00
56944;BME280;42848;42.524;12.052;2023-12-20T11:07:25;96338.38;;;9.68;100.00
56944;BME280;42848;42.524;12.052;2023-12-20T11:15:18;96338.31;;;9.85;100.00
56944;BME280;42848;42.524;12.052;2023-12-20T11:17:55;96343.44;;;9.78;100.00
56944;BME280;42848;42.524;12.052;2023-12-20T11:20:40;96333.72;;;9.77;100.00
56944;BME280;42848;42.524;12.052;2023-12-20T11:23:08;96336.97;;;9.71;100.00
56944;BME280;42848;42.524;12.052;2023-12-20T11:25:53;96316.84;;;9.80;100.00
56944;BME280;42848;42.524;12.052;2023-12-20T11:28:24;96322.88;;;9.77;100.00
56944;BME280;42848;42.524;12.052;2023-12-20T11:33:16;96312.19;;;9.89;100.00
56944;BME280;42848;42.524;12.052;2023-12-20T11:35:43;96310.28;;;9.81;100.00
56944;BME280;42848;42.524;12.052;2023-12-20T11:38:10;96305.34;;;9.83;100.00
56944;BME280;42848;42.524;12.052;2023-12-20T11:40:37;96305.97;;;9.89;100.00
56944;BME280;42848;42.524;12.052;2023-12-20T11:43:03;96304.44;;;9.71;100.00
56944;BME280;42848;42.524;12.052;2023-12-20T11:45:29;96310.13;;;9.78;100.00
56944;BME280;42848;42.524;12.052;2023-12-20T11:47:56;96307.03;;;9.96;100.00
56944;BME280;42848;42.524;12.052;2023-12-20T11:50:23;96297.06;;;9.80;100.00
56944;BME280;42848;42.524;12.052;2023-12-20T11:52:52;96294.03;;;9.81;100.00
56944;BME280;42848;42.524;12.052;2023-12-20T11:55:19;96294.47;;;9.92;100.00
56944;BME280;42848;42.524;12.052;2023-12-20T11:57:44;96294.53;;;9.75;100.00
56944;BME280;42848;42.524;12.052;2023-12-20T12:00:11;96285.56;;;9.83;100.00
56944;BME280;42848;42.524;12.052;2023-12-20T12:02:37;96282.56;;;10.05;100.00
56944;BME280;42848;42.524;12.052;2023-12-20T12:05:02;96277.31;;;10.09;100.00
56944;BME280;42848;42.524;12.052;2023-12-20T12:07:31;96279.81;;;10.22;100.00
56944;BME280;42848;42.524;12.052;2023-12-20T12:09:57;96274.22;;;9.89;100.00
56944;BME280;42848;42.524;12.052;2023-12-20T12:12:24;96276.66;;;10.12;100.00
56944;BME280;42848;42.524;12.052;2023-12-20T12:14:54;96272.63;;;9.88;100.00
56944;BME280;42848;42.524;12.052;2023-12-20T12:17:20;96271.22;;;10.12;100.00
56944;BME280;42848;42.524;12.052;2023-12-20T12:19:45;96262.59;;;10.18;100.00
56944;BME280;42848;42.524;12.052;2023-12-20T12:22:14;96264.16;;;10.28;100.00
56944;BME280;42848;42.524;12.052;2023-12-20T12:27:07;96252.72;;;10.43;100.00
56944;BME280;42848;42.524;12.052;2023-12-20T12:29:34;96245.97;;;10.20;100.00
56944;BME280;42848;42.524;12.052;2023-12-20T12:32:00;96245.22;;;10.40;100.00
56944;BME280;42848;42.524;12.052;2023-12-20T12:34:29;96230.81;;;10.48;100.00
56944;BME280;42848;42.524;12.052;2023-12-20T12:36:56;96232.38;;;10.49;100.00
56944;BME280;42848;42.524;12.052;2023-12-20T12:39:23;96231.06;;;10.35;100.00
56944;BME280;42848;42.524;12.052;2023-12-20T12:41:53;96221.53;;;10.29;100.00
56944;BME280;42848;42.524;12.052;2023-12-20T12:44:19;96224.06;;;10.54;100.00
56944;BME280;42848;42.524;12.052;2023-12-20T12:46:48;96212.78;;;10.23;100.00
56944;BME280;42848;42.524;12.052;2023-12-20T12:49:17;96205.00;;;10.42;100.00
56944;BME280;42848;42.524;12.052;2023-12-20T12:51:43;96196.94;;;10.34;100.00
56944;BME280;42848;42.524;12.052;2023-12-20T12:54:10;96198.09;;;10.66;100.00
56944;BME280;42848;42.524;12.052;2023-12-20T12:56:36;96186.88;;;10.34;100.00
56944;BME280;42848;42.524;12.052;2023-12-20T12:59:02;96180.09;;;10.40;100.00
56944;BME280;42848;42.524;12.052;2023-12-20T13:01:28;96176.16;;;10.38;100.00